CheckWX is a tool to help pilots better visualize weather data.  It is not intended as a substitute for an official pre-flight weather briefing.

17:54:04 UTC

KXNA METAR
Northwest Arkansas Regional Airport
Fayetteville/Springdale/Rogers, Arkansas, USA
Current

1 hour ago

KXNA 171653Z VRB04KT 10SM CLR 16/06 A3006 RMK AO2 SLP177 T01610061
Observed
Oct-17 @ 16:53 UTC
Wind
  • Variable at 4 KTS
Visibility
10 SM
Flight Rules
VFR
Cloud Levels
  • Clear skies
Temperature
16°C / 61°F
Dewpoint
C / 43°F
Humidity
52%
Altimeter
30.06" Hg
Pressure
1017.92 hPa
Previous

2 hours ago

KXNA 171553Z VRB04KT 10SM CLR 13/07 A3008 RMK AO2 SLP184 T01330072
Observed
Oct-17 @ 15:53 UTC
Wind
  • Variable at 4 KTS
Visibility
10 SM
Flight Rules
VFR
Cloud Levels
  • Clear skies
Temperature
13°C / 55°F
Dewpoint
C / 45°F
Humidity
67%
Altimeter
30.08" Hg
Pressure
1018.62 hPa
Previous

3 hours ago

KXNA 171453Z 14005KT 10SM CLR 10/06 A3009 RMK AO2 SLP188 T01000061 50000
Observed
Oct-17 @ 14:53 UTC
Wind
  • 140° at 5 KTS
Visibility
10 SM
Flight Rules
VFR
Cloud Levels
  • Clear skies
Temperature
10°C / 50°F
Dewpoint
C / 43°F
Humidity
76%
Altimeter
30.09" Hg
Pressure
1018.92 hPa